Time;durP1;ratioP1;P1;durP2;ratioP2;P2;SDS_P1;SDS_P2;PMS_P1;PMS_P2;Temp;Humidity;BMP_temperature;BMP_pressure;BME280_temperature;BME280_humidity;BME280_pressure;Samples;Min_cycle;Max_cycle;Signal;HPM_P1;HPM_P2
2023/10/12 00:02:00;;;;;;;4.53;3.95;;;29.30;99.90;;;;;;5043035;28;20056;-50
2023/10/12 00:04:43;;;;;;;6.35;3.78;;;29.30;99.90;;;;;;5036788;28;20017;-51
2023/10/12 00:07:16;;;;;;;5.13;4.40;;;29.30;99.90;;;;;;5052695;28;20384;-50
2023/10/12 00:09:48;;;;;;;5.55;3.97;;;29.20;99.90;;;;;;5055658;28;20660;-50
2023/10/12 00:12:24;;;;;;;4.32;3.92;;;29.20;99.90;;;;;;5055441;28;20503;-50
2023/10/12 00:14:54;;;;;;;3.97;3.60;;;29.30;99.90;;;;;;5055296;28;20064;-51
2023/10/12 00:17:23;;;;;;;4.60;4.18;;;29.20;99.90;;;;;;5055144;28;20021;-51
2023/10/12 00:19:53;;;;;;;4.82;3.80;;;29.20;99.90;;;;;;5055177;28;20568;-51
2023/10/12 00:22:19;;;;;;;5.63;4.13;;;29.20;99.90;;;;;;5055093;28;20090;-51
2023/10/12 00:24:45;;;;;;;6.15;4.38;;;29.20;99.90;;;;;;5055130;28;20495;-51
2023/10/12 00:27:15;;;;;;;4.22;3.70;;;29.20;99.90;;;;;;5055355;28;20033;-51
2023/10/12 00:29:42;;;;;;;4.45;3.92;;;29.10;99.90;;;;;;5055255;28;20040;-51
2023/10/12 00:32:08;;;;;;;4.55;3.97;;;29.20;99.90;;;;;;5055109;28;20476;-50
2023/10/12 00:34:40;;;;;;;5.15;4.25;;;29.20;99.90;;;;;;5054942;28;20146;-50
2023/10/12 00:37:08;;;;;;;4.15;3.53;;;29.20;99.90;;;;;;5054930;28;20021;-51
2023/10/12 00:39:47;;;;;;;4.53;3.67;;;29.10;99.90;;;;;;5054925;28;20381;-51
2023/10/12 00:42:17;;;;;;;4.57;4.05;;;29.10;99.90;;;;;;5054846;28;20492;-51
2023/10/12 00:44:55;;;;;;;4.30;3.72;;;29.10;99.90;;;;;;5054834;28;20021;-50
2023/10/12 00:50:11;;;;;;;4.40;3.65;;;29.00;99.90;;;;;;5054879;28;20055;-51
2023/10/12 00:52:52;;;;;;;4.55;3.90;;;29.00;99.90;;;;;;5036687;28;20107;-50
2023/10/12 00:55:23;;;;;;;4.72;3.50;;;29.10;99.90;;;;;;5054470;28;20049;-50
2023/10/12 00:57:51;;;;;;;5.00;3.85;;;29.00;99.90;;;;;;5054525;28;20048;-51
2023/10/12 01:00:18;;;;;;;4.20;3.72;;;29.00;99.90;;;;;;5037097;28;20021;-50
2023/10/12 01:03:07;;;;;;;4.85;3.97;;;29.00;99.90;;;;;;5054321;28;20059;-50
2023/10/12 01:05:35;;;;;;;4.28;3.65;;;29.00;99.90;;;;;;5053809;28;20025;-51
2023/10/12 01:08:05;;;;;;;4.53;3.70;;;29.00;99.90;;;;;;5054282;28;20021;-51
2023/10/12 01:10:32;;;;;;;4.18;3.78;;;29.00;99.90;;;;;;5054306;28;20461;-50
2023/10/12 01:13:02;;;;;;;5.18;4.05;;;29.00;99.90;;;;;;5054169;28;20025;-50
2023/10/12 01:15:30;;;;;;;5.45;4.43;;;29.00;99.90;;;;;;5053890;28;20025;-50
2023/10/12 01:17:56;;;;;;;4.70;4.20;;;29.00;99.90;;;;;;5054096;28;20389;-51
2023/10/12 01:20:26;;;;;;;7.63;4.50;;;29.00;99.90;;;;;;5053443;28;20029;-51
2023/10/12 01:22:53;;;;;;;4.00;3.60;;;28.90;99.90;;;;;;5054075;28;20524;-51
2023/10/12 01:25:28;;;;;;;4.78;4.00;;;28.90;99.90;;;;;;5053993;28;20025;-51
2023/10/12 01:27:54;;;;;;;4.88;4.15;;;28.90;99.90;;;;;;5053895;28;20112;-50
2023/10/12 01:30:24;;;;;;;4.97;4.25;;;28.90;99.90;;;;;;5053900;28;20021;-51
2023/10/12 01:32:58;;;;;;;4.53;4.00;;;28.90;99.90;;;;;;5053706;28;20029;-51
2023/10/12 01:35:33;;;;;;;5.60;4.10;;;28.90;99.90;;;;;;5035960;28;20057;-51
2023/10/12 01:38:08;;;;;;;6.78;4.35;;;28.90;99.90;;;;;;5037417;28;20465;-50
2023/10/12 01:43:12;;;;;;;4.70;4.18;;;28.80;99.90;;;;;;5053798;28;20035;-50
2023/10/12 01:45:41;;;;;;;4.85;4.30;;;28.80;99.90;;;;;;5053585;28;20029;-50
2023/10/12 01:48:22;;;;;;;4.53;4.03;;;28.80;99.90;;;;;;5053474;28;20463;-51
2023/10/12 01:50:49;;;;;;;4.57;4.18;;;28.80;99.90;;;;;;5053493;28;20492;-50
2023/10/12 01:55:51;;;;;;;5.07;4.57;;;28.80;99.90;;;;;;5053567;28;20047;-50
2023/10/12 01:58:21;;;;;;;5.57;4.50;;;28.80;99.90;;;;;;5053395;28;20020;-49
2023/10/12 02:00:52;;;;;;;5.32;4.80;;;28.80;99.90;;;;;;5053863;28;20552;-50
2023/10/12 02:06:01;;;;;;;5.28;4.43;;;28.70;99.90;;;;;;5053226;28;20036;-49
2023/10/12 02:08:45;;;;;;;6.40;4.57;;;28.70;99.90;;;;;;5053163;28;20556;-49
2023/10/12 02:13:47;;;;;;;6.32;4.68;;;28.70;99.90;;;;;;5053029;28;20025;-49
2023/10/12 02:16:23;;;;;;;6.55;4.85;;;28.70;99.90;;;;;;5035172;28;20037;-49
2023/10/12 02:18:55;;;;;;;5.82;4.80;;;28.70;99.90;;;;;;5053219;28;20464;-49
2023/10/12 02:21:22;;;;;;;5.63;4.35;;;28.70;99.90;;;;;;5052787;28;20503;-49
2023/10/12 02:24:09;;;;;;;6.45;4.90;;;28.60;99.90;;;;;;5053047;28;20031;-50
2023/10/12 02:26:37;;;;;;;6.18;4.82;;;28.60;99.90;;;;;;5052731;28;20107;-49
2023/10/12 02:31:34;;;;;;;6.25;5.03;;;28.60;99.90;;;;;;5051743;28;20161;-49
2023/10/12 02:34:02;;;;;;;5.78;4.93;;;28.60;99.90;;;;;;5052670;28;20049;-49
2023/10/12 02:36:28;;;;;;;6.90;5.50;;;28.60;99.90;;;;;;5052581;28;20021;-50
2023/10/12 02:39:00;;;;;;;7.15;5.45;;;28.60;99.90;;;;;;5052627;28;20079;-50
2023/10/12 02:41:26;;;;;;;6.03;5.28;;;28.60;99.90;;;;;;5052345;28;20021;-50
2023/10/12 02:44:11;;;;;;;7.28;5.47;;;28.60;99.90;;;;;;5052449;28;20037;-49
2023/10/12 02:46:41;;;;;;;7.75;5.55;;;28.50;99.90;;;;;;5052452;28;20013;-50
2023/10/12 02:49:06;;;;;;;6.63;5.78;;;28.60;99.90;;;;;;5052284;28;20546;-51
2023/10/12 02:51:39;;;;;;;8.05;6.05;;;28.50;99.90;;;;;;5052298;28;20029;-50
2023/10/12 02:54:05;;;;;;;7.60;6.20;;;28.60;99.90;;;;;;5052219;28;20013;-50
2023/10/12 02:56:31;;;;;;;7.78;6.47;;;28.50;99.90;;;;;;5052440;28;20045;-49
2023/10/12 02:59:08;;;;;;;7.38;5.90;;;28.50;99.90;;;;;;5052202;28;20452;-51
2023/10/12 03:01:38;;;;;;;7.25;6.07;;;28.50;99.90;;;;;;5036427;28;20045;-50
2023/10/12 03:04:10;;;;;;;7.15;6.18;;;28.50;99.90;;;;;;5052248;28;20413;-50
2023/10/12 03:06:55;;;;;;;7.80;6.18;;;28.50;99.90;;;;;;5052167;28;20049;-51
2023/10/12 03:09:26;;;;;;;7.53;5.85;;;28.50;99.90;;;;;;5052574;28;20021;-50
2023/10/12 03:11:56;;;;;;;8.88;6.32;;;28.50;99.90;;;;;;5052422;28;20017;-50
2023/10/12 03:14:26;;;;;;;7.85;6.45;;;28.50;99.90;;;;;;5034569;28;20454;-48
2023/10/12 03:16:52;;;;;;;8.65;6.88;;;28.50;99.90;;;;;;5052067;28;20022;-50
2023/10/12 03:19:27;;;;;;;7.32;6.30;;;28.40;99.90;;;;;;5052451;28;20025;-49
2023/10/12 03:22:03;;;;;;;7.93;6.57;;;28.40;99.90;;;;;;5052094;28;20112;-50
2023/10/12 03:27:24;;;;;;;8.15;6.60;;;28.40;99.90;;;;;;5038581;28;20489;-50
2023/10/12 03:30:07;;;;;;;8.75;6.03;;;28.40;99.90;;;;;;5052225;28;20021;-50
2023/10/12 03:32:32;;;;;;;8.80;7.05;;;28.40;99.90;;;;;;5052060;28;20415;-50
2023/10/12 03:34:58;;;;;;;8.05;6.75;;;28.40;99.90;;;;;;5052194;28;20025;-51
2023/10/12 03:37:44;;;;;;;10.10;7.28;;;28.30;99.90;;;;;;5052167;28;20036;-49
2023/10/12 03:43:32;;;;;;;9.75;7.35;;;28.30;99.90;;;;;;4993301;28;20438;-50
2023/10/12 03:48:47;;;;;;;9.10;7.15;;;28.30;99.90;;;;;;5030290;28;20099;-49
2023/10/12 03:51:25;;;;;;;8.70;6.90;;;28.30;99.90;;;;;;5055533;28;20104;-50
2023/10/12 03:53:57;;;;;;;8.00;6.60;;;28.30;99.90;;;;;;5037968;28;20021;-50
2023/10/12 03:56:28;;;;;;;10.02;7.25;;;28.30;99.90;;;;;;5037910;28;20061;-50
2023/10/12 03:59:06;;;;;;;9.02;6.95;;;28.30;99.90;;;;;;5037685;28;20017;-50
2023/10/12 04:01:35;;;;;;;8.95;7.22;;;28.30;99.90;;;;;;5055930;28;20076;-50
2023/10/12 04:04:20;;;;;;;10.38;7.53;;;28.30;99.90;;;;;;5055413;28;20017;-50
2023/10/12 04:09:42;;;;;;;9.52;7.60;;;28.30;99.90;;;;;;5055625;28;20086;-50
2023/10/12 04:27:50;;;;;;;9.65;7.28;;;28.20;99.90;;;;;;5055154;28;20089;-50
2023/10/12 04:33:11;;;;;;;8.85;6.50;;;28.20;99.90;;;;;;5038987;28;20033;-50
2023/10/12 04:43:37;;;;;;;9.60;6.95;;;28.20;99.90;;;;;;5054971;28;20036;-50
2023/10/12 04:48:41;;;;;;;9.10;6.80;;;28.10;99.90;;;;;;5054688;28;20089;-51
2023/10/12 04:51:21;;;;;;;8.13;6.65;;;28.10;99.90;;;;;;5036792;28;20024;-50
2023/10/12 04:53:57;;;;;;;8.95;7.28;;;28.10;99.90;;;;;;5053560;28;20037;-50
2023/10/12 04:56:25;;;;;;;7.55;6.35;;;28.10;99.90;;;;;;5036851;28;20071;-50
2023/10/12 04:58:59;;;;;;;8.52;6.88;;;28.10;99.90;;;;;;5054389;28;20025;-50
2023/10/12 05:02:13;;;;;;;7.90;6.35;;;28.10;99.90;;;;;;5054540;28;20460;-50
2023/10/12 05:09:49;;;;;;;9.15;6.50;;;28.10;99.90;;;;;;5054241;28;20028;-50
2023/10/12 05:12:15;;;;;;;8.38;6.50;;;28.00;99.90;;;;;;5054138;28;20028;-50
2023/10/12 05:14:41;;;;;;;9.13;7.23;;;28.00;99.90;;;;;;5054366;28;20024;-50
2023/10/12 05:17:10;;;;;;;8.43;6.68;;;28.00;99.90;;;;;;5054148;28;20020;-50
2023/10/12 05:19:36;;;;;;;8.20;6.38;;;28.00;99.90;;;;;;5054071;28;20358;-49
2023/10/12 05:22:02;;;;;;;6.72;5.88;;;28.00;99.90;;;;;;5053922;28;20052;-50
2023/10/12 05:24:28;;;;;;;10.25;6.25;;;28.00;99.90;;;;;;5054236;28;20461;-49
2023/10/12 05:27:39;;;;;;;8.43;5.95;;;28.00;99.90;;;;;;5036210;28;20029;-50
2023/10/12 05:29:45;;;;;;;8.43;5.88;;;28.00;99.90;;;;;;5028764;28;20429;-50
2023/10/12 05:39:56;;;;;;;8.70;6.00;;;28.00;99.90;;;;;;5038811;28;20146;-50
2023/10/12 05:42:22;;;;;;;7.32;5.90;;;28.00;99.90;;;;;;5053599;28;20029;-50
2023/10/12 05:44:50;;;;;;;7.75;5.97;;;28.00;99.90;;;;;;5053705;28;20025;-50
2023/10/12 05:47:18;;;;;;;7.78;6.18;;;28.00;99.90;;;;;;5053605;28;20039;-50
2023/10/12 05:49:45;;;;;;;6.63;5.70;;;27.90;99.90;;;;;;5053535;28;20025;-50
2023/10/12 05:52:12;;;;;;;7.72;6.25;;;28.00;99.90;;;;;;5053438;28;20025;-52
2023/10/12 05:54:40;;;;;;;7.38;5.70;;;28.00;99.90;;;;;;5035724;28;20021;-51
2023/10/12 05:57:19;;;;;;;8.57;6.13;;;28.00;99.90;;;;;;5053444;28;20029;-51
2023/10/12 05:59:46;;;;;;;6.65;5.57;;;27.90;99.90;;;;;;5053279;28;20024;-50
2023/10/12 06:02:13;;;;;;;7.13;6.13;;;28.00;99.90;;;;;;5053120;28;20217;-50
2023/10/12 06:04:39;;;;;;;6.78;5.97;;;27.90;99.90;;;;;;5053062;28;20028;-51
2023/10/12 06:07:05;;;;;;;6.53;5.55;;;27.90;99.90;;;;;;5035418;28;20021;-50
2023/10/12 06:09:37;;;;;;;7.53;6.10;;;27.90;99.90;;;;;;5053183;28;20075;-50
2023/10/12 06:12:07;;;;;;;6.50;5.20;;;27.90;99.90;;;;;;5035178;28;20429;-50
2023/10/12 06:14:38;;;;;;;8.68;5.72;;;27.90;99.90;;;;;;5053194;28;20024;-50
2023/10/12 06:17:27;;;;;;;5.90;5.20;;;27.90;99.90;;;;;;5052978;28;20112;-50
2023/10/12 06:19:55;;;;;;;5.97;5.13;;;27.90;99.90;;;;;;5052903;28;20389;-50
2023/10/12 06:22:23;;;;;;;7.13;5.15;;;27.90;99.90;;;;;;5035331;28;20040;-50
2023/10/12 06:24:52;;;;;;;6.53;5.05;;;27.90;99.90;;;;;;5052912;28;20025;-50
2023/10/12 06:29:49;;;;;;;5.67;4.70;;;27.80;99.90;;;;;;5052803;28;20020;-50
2023/10/12 06:32:18;;;;;;;6.50;5.25;;;27.80;99.90;;;;;;5052678;28;20078;-50
2023/10/12 06:34:45;;;;;;;7.63;4.78;;;27.80;99.90;;;;;;5052562;28;20381;-50
2023/10/12 06:37:30;;;;;;;6.22;4.70;;;27.80;99.90;;;;;;5052584;28;20431;-50
2023/10/12 06:42:44;;;;;;;5.38;4.72;;;27.80;99.90;;;;;;5052424;28;20062;-50
2023/10/12 06:45:10;;;;;;;5.20;4.70;;;27.80;99.90;;;;;;5052353;28;20024;-50
2023/10/12 06:47:42;;;;;;;6.57;4.88;;;27.80;99.90;;;;;;5052430;28;20063;-50
2023/10/12 06:50:15;;;;;;;7.63;5.30;;;27.80;99.90;;;;;;5034669;28;20024;-50
2023/10/12 06:52:43;;;;;;;7.25;5.10;;;27.80;99.90;;;;;;5052339;28;20093;-50
2023/10/12 06:55:21;;;;;;;5.78;4.57;;;27.80;99.90;;;;;;5052428;28;20017;-50
2023/10/12 06:57:52;;;;;;;6.07;4.45;;;27.80;99.90;;;;;;5052350;28;20033;-50
2023/10/12 07:00:33;;;;;;;5.97;4.47;;;27.80;99.90;;;;;;5052319;28;20028;-50
2023/10/12 07:03:00;;;;;;;5.88;4.47;;;27.80;99.90;;;;;;5052374;28;20146;-50
2023/10/12 07:05:37;;;;;;;6.53;5.00;;;27.80;99.90;;;;;;5052096;28;20033;-50
2023/10/12 07:08:07;;;;;;;;;;;27.80;99.90;;;;;;5052873;28;20108;-49
2023/10/12 07:10:35;;;;;;;6.63;4.72;;;27.80;99.90;;;;;;5034507;28;19909;-50
2023/10/12 07:13:01;;;;;;;7.57;4.68;;;27.80;99.90;;;;;;5052264;28;20017;-51
2023/10/12 07:15:40;;;;;;;6.05;4.38;;;27.80;99.90;;;;;;5052059;28;20096;-50
2023/10/12 07:18:07;;;;;;;5.22;4.40;;;27.90;99.90;;;;;;5051475;28;20087;-50
2023/10/12 07:23:05;;;;;;;5.72;4.50;;;27.90;99.90;;;;;;5052142;28;20041;-50
2023/10/12 07:25:35;;;;;;;5.47;4.68;;;27.90;99.90;;;;;;5052336;28;20021;-50
2023/10/12 07:28:01;;;;;;;6.93;3.72;;;28.00;99.90;;;;;;5052132;28;20028;-50
2023/10/12 07:30:33;;;;;;;5.03;3.97;;;28.00;99.90;;;;;;5051979;28;20073;-50
2023/10/12 07:33:05;;;;;;;5.05;4.05;;;28.00;99.90;;;;;;5034170;28;20021;-50
2023/10/12 07:35:32;;;;;;;5.13;4.28;;;28.00;99.90;;;;;;5052115;28;20016;-50
2023/10/12 07:38:25;;;;;;;5.63;4.18;;;28.00;99.90;;;;;;5051995;28;20024;-50
2023/10/12 07:43:20;;;;;;;5.00;4.18;;;28.10;99.90;;;;;;5051944;28;20045;-51
2023/10/12 07:45:48;;;;;;;4.47;3.85;;;28.10;99.90;;;;;;5033987;28;20102;-50
2023/10/12 07:48:29;;;;;;;5.25;4.43;;;28.10;99.90;;;;;;5051942;28;20031;-49
2023/10/12 07:50:56;;;;;;;7.10;4.53;;;28.20;99.90;;;;;;5051836;28;20064;-50
2023/10/12 07:53:22;;;;;;;6.07;4.45;;;28.20;99.90;;;;;;5051793;28;20029;-50
2023/10/12 07:56:00;;;;;;;5.45;4.38;;;28.20;99.90;;;;;;5051765;28;20032;-50
2023/10/12 07:58:29;;;;;;;6.85;4.50;;;28.20;99.90;;;;;;5034216;28;20103;-50
2023/10/12 08:03:49;;;;;;;5.57;4.38;;;28.20;99.90;;;;;;5051910;28;20128;-50
2023/10/12 08:06:16;;;;;;;5.28;4.07;;;28.30;99.90;;;;;;5051618;28;20049;-50
2023/10/12 08:08:42;;;;;;;5.70;3.97;;;28.30;99.90;;;;;;5051619;28;20461;-50
2023/10/12 08:11:40;;;;;;;5.50;4.45;;;28.30;99.90;;;;;;5051663;28;20028;-50
2023/10/12 08:14:09;;;;;;;5.13;3.70;;;28.30;99.90;;;;;;5049430;28;20033;-50
2023/10/12 08:16:40;;;;;;;6.10;4.35;;;28.30;99.90;;;;;;5051829;28;20021;-50
2023/10/12 08:21:38;;;;;;;5.68;4.10;;;28.30;99.90;;;;;;5051894;28;20068;-50
2023/10/12 08:31:46;;;;;;;7.28;4.03;;;28.40;99.90;;;;;;5055170;28;20542;-50
2023/10/12 08:39:48;;;;;;;7.95;4.18;;;28.50;99.90;;;;;;5054891;28;20032;-50
2023/10/12 08:45:17;;;;;;;4.47;3.92;;;28.50;99.90;;;;;;5054926;28;20531;-51
2023/10/12 08:47:50;;;;;;;4.53;3.72;;;28.50;99.90;;;;;;5054699;28;20108;-50
2023/10/12 08:52:50;;;;;;;5.70;4.70;;;28.50;99.90;;;;;;5054490;28;20036;-50
2023/10/12 08:55:24;;;;;;;8.13;4.15;;;28.50;99.90;;;;;;5054638;28;20051;-50
2023/10/12 08:58:02;;;;;;;5.10;3.85;;;28.50;99.90;;;;;;5054544;28;20032;-51
2023/10/12 09:05:54;;;;;;;4.95;3.70;;;28.60;99.90;;;;;;5054239;28;20025;-51
2023/10/12 09:11:02;;;;;;;;;;;28.60;99.90;;;;;;5054725;28;20152;-51
2023/10/12 09:13:35;;;;;;;4.18;3.42;;;28.60;99.90;;;;;;5054242;28;19904;-51
2023/10/12 09:16:03;;;;;;;4.13;3.72;;;28.70;99.90;;;;;;5054208;28;20040;-50
2023/10/12 09:18:46;;;;;;;4.15;3.75;;;28.60;99.90;;;;;;5054109;28;20108;-51
2023/10/12 09:21:23;;;;;;;4.50;3.78;;;28.70;99.90;;;;;;5037903;28;20086;-51
2023/10/12 09:23:52;;;;;;;4.95;3.85;;;28.70;99.90;;;;;;5036165;28;20120;-51
2023/10/12 09:26:46;;;;;;;4.80;3.70;;;28.70;99.90;;;;;;5053863;28;20021;-51
2023/10/12 09:29:23;;;;;;;4.00;3.40;;;28.70;99.90;;;;;;5053803;28;20108;-50
2023/10/12 09:32:19;;;;;;;4.72;4.13;;;28.80;99.90;;;;;;5053861;28;20044;-51
2023/10/12 09:35:25;;;;;;;5.38;4.38;;;28.80;99.90;;;;;;5053705;28;20063;-50
2023/10/12 09:37:45;;;;;;;4.93;3.72;;;28.80;99.90;;;;;;5050741;28;20116;-51
2023/10/12 09:42:59;;;;;;;3.65;3.22;;;28.90;99.90;;;;;;5053494;28;20043;-51
2023/10/12 09:45:27;;;;;;;5.15;3.70;;;29.00;99.90;;;;;;5053677;28;20017;-51
2023/10/12 09:47:58;;;;;;;4.18;3.72;;;28.90;99.90;;;;;;5053575;28;20029;-51
2023/10/12 09:50:32;;;;;;;4.30;3.67;;;29.00;99.90;;;;;;5053567;28;20025;-51
2023/10/12 09:53:12;;;;;;;7.60;3.72;;;29.00;99.90;;;;;;5053550;28;20436;-50
2023/10/12 09:55:40;;;;;;;4.03;3.53;;;29.00;99.90;;;;;;5035788;28;20021;-51
2023/10/12 09:58:26;;;;;;;4.68;3.10;;;29.10;99.90;;;;;;5053277;28;20025;-51
2023/10/12 10:01:15;;;;;;;4.30;3.73;;;29.10;99.90;;;;;;5052836;28;20040;-51
2023/10/12 10:03:47;;;;;;;6.55;3.38;;;29.10;99.90;;;;;;5053507;28;20029;-51
2023/10/12 10:06:37;;;;;;;4.25;3.53;;;29.20;99.90;;;;;;5053256;28;20029;-51
2023/10/12 10:09:18;;;;;;;4.32;3.35;;;29.20;99.90;;;;;;5021799;28;20478;-50
2023/10/12 10:11:45;;;;;;;4.25;3.75;;;29.20;99.90;;;;;;5053027;28;20025;-52
2023/10/12 10:14:20;;;;;;;3.83;3.38;;;29.30;99.90;;;;;;5053285;28;20031;-51
2023/10/12 10:16:46;;;;;;;4.00;3.60;;;29.20;99.90;;;;;;5035616;28;20028;-50
2023/10/12 10:19:16;;;;;;;4.72;4.10;;;29.30;99.90;;;;;;5035206;28;20452;-51
2023/10/12 10:21:51;;;;;;;3.92;3.53;;;29.40;99.90;;;;;;5053021;28;20032;-50
2023/10/12 10:24:23;;;;;;;3.65;3.33;;;29.40;99.90;;;;;;5052723;28;20029;-50
2023/10/12 10:26:57;;;;;;;4.43;3.65;;;29.40;99.90;;;;;;5052820;28;20401;-51
2023/10/12 10:29:41;;;;;;;3.85;3.47;;;29.40;99.90;;;;;;5052753;28;20052;-50
2023/10/12 10:32:10;;;;;;;4.35;3.38;;;29.50;99.90;;;;;;5034722;28;20036;-51
2023/10/12 10:34:36;;;;;;;4.47;3.45;;;29.50;99.90;;;;;;5052715;28;20060;-50
2023/10/12 10:37:04;;;;;;;5.13;3.70;;;29.50;99.90;;;;;;5052768;28;20456;-51
2023/10/12 10:39:30;;;;;;;6.43;4.25;;;29.50;99.90;;;;;;5052768;28;20054;-51
2023/10/12 10:42:00;;;;;;;5.40;3.90;;;29.60;99.90;;;;;;5052460;28;20485;-51
2023/10/12 10:44:27;;;;;;;4.18;3.60;;;29.60;99.90;;;;;;5035370;28;20029;-50
2023/10/12 10:46:57;;;;;;;4.55;3.50;;;29.70;99.90;;;;;;5052557;28;20108;-51
2023/10/12 10:49:30;;;;;;;6.18;3.95;;;29.60;99.90;;;;;;5052626;28;20025;-51
2023/10/12 10:54:34;;;;;;;4.10;3.28;;;29.70;99.90;;;;;;5035896;28;20027;-51
2023/10/12 10:57:04;;;;;;;4.70;3.78;;;29.70;99.90;;;;;;5052540;28;20025;-51
2023/10/12 10:59:31;;;;;;;4.50;3.50;;;29.80;99.90;;;;;;5052268;28;20163;-51
2023/10/12 11:01:59;;;;;;;4.15;3.60;;;29.80;99.90;;;;;;5052138;28;20049;-51
2023/10/12 11:04:41;;;;;;;5.07;3.85;;;29.80;99.90;;;;;;5052277;28;20021;-56
2023/10/12 11:07:20;;;;;;;5.03;3.90;;;29.80;99.90;;;;;;5052148;28;20416;-51
2023/10/12 11:12:26;;;;;;;4.57;4.00;;;29.90;99.90;;;;;;5052087;28;20051;-51
2023/10/12 11:15:00;;;;;;;3.85;3.47;;;29.90;99.90;;;;;;5052136;28;20017;-52
2023/10/12 11:18:05;;;;;;;4.13;3.58;;;29.90;99.90;;;;;;5035731;28;20434;-51
2023/10/12 11:20:43;;;;;;;4.53;4.13;;;29.90;99.90;;;;;;5052122;28;20050;-49
2023/10/12 11:23:10;;;;;;;4.35;3.85;;;30.00;99.90;;;;;;5052107;28;20362;-51
2023/10/12 11:25:39;;;;;;;4.28;3.88;;;30.00;99.90;;;;;;5052189;28;20020;-51
2023/10/12 11:28:22;;;;;;;3.65;3.35;;;30.00;99.90;;;;;;5052150;28;20490;-51
2023/10/12 11:30:51;;;;;;;5.35;3.70;;;30.00;99.90;;;;;;5052069;28;20024;-51
2023/10/12 11:33:27;;;;;;;4.53;3.90;;;30.00;99.90;;;;;;5052154;28;20013;-51
2023/10/12 11:35:54;;;;;;;4.25;3.70;;;30.10;99.90;;;;;;5051981;28;20051;-51
2023/10/12 11:38:23;;;;;;;5.85;3.63;;;30.10;99.90;;;;;;5052083;28;20029;-51
2023/10/12 11:40:55;;;;;;;4.65;3.85;;;30.10;99.90;;;;;;5051913;28;20112;-51
2023/10/12 11:43:49;;;;;;;4.18;3.45;;;30.10;99.90;;;;;;5051904;28;20497;-51
2023/10/12 11:46:15;;;;;;;4.25;3.85;;;30.10;99.90;;;;;;5052045;28;20528;-51
2023/10/12 11:48:41;;;;;;;4.85;3.90;;;30.20;99.90;;;;;;5051804;28;20060;-51
2023/10/12 11:51:13;;;;;;;4.50;3.83;;;30.20;99.90;;;;;;5051869;28;20050;-51
2023/10/12 11:53:41;;;;;;;4.10;3.70;;;30.20;99.90;;;;;;5051679;28;20021;-51
2023/10/12 11:56:14;;;;;;;4.38;3.97;;;30.20;99.90;;;;;;5051810;28;20024;-51
2023/10/12 11:58:41;;;;;;;4.78;4.13;;;30.30;99.90;;;;;;5051699;28;20033;-51
2023/10/12 12:01:10;;;;;;;4.63;3.35;;;30.30;99.90;;;;;;5051466;28;20128;-51
2023/10/12 12:03:45;;;;;;;5.47;4.32;;;30.30;99.90;;;;;;5053305;28;20021;-51
2023/10/12 12:06:18;;;;;;;4.00;3.47;;;30.30;99.90;;;;;;5055358;28;20024;-51
2023/10/12 12:08:45;;;;;;;4.53;3.47;;;30.30;99.90;;;;;;5055755;28;20389;-51
2023/10/12 12:11:13;;;;;;;;;;;30.30;99.90;;;;;;5055930;28;20389;-51
2023/10/12 12:13:47;;;;;;;5.10;3.53;;;30.40;99.90;;;;;;5055221;28;19905;-51
2023/10/12 12:16:20;;;;;;;4.35;3.65;;;30.40;99.90;;;;;;5055414;28;20033;-51
2023/10/12 12:18:51;;;;;;;3.60;3.30;;;30.30;99.90;;;;;;5055356;28;20055;-51
2023/10/12 12:21:28;;;;;;;4.45;3.70;;;30.40;99.90;;;;;;5055429;28;20115;-51
2023/10/12 12:23:55;;;;;;;5.22;3.75;;;30.40;99.90;;;;;;5055282;28;20025;-51
2023/10/12 12:26:23;;;;;;;4.68;3.75;;;30.40;99.90;;;;;;5055103;28;20025;-51
2023/10/12 12:29:02;;;;;;;;;;;30.50;99.90;;;;;;5055645;28;20025;-51
2023/10/12 12:31:32;;;;;;;5.10;4.10;;;30.50;99.90;;;;;;5055059;28;19905;-51
2023/10/12 12:33:58;;;;;;;4.28;3.78;;;30.40;99.90;;;;;;5054908;28;20021;-50
2023/10/12 12:36:24;;;;;;;5.57;3.90;;;30.50;99.90;;;;;;5036934;28;20091;-50
2023/10/12 12:41:35;;;;;;;4.38;3.70;;;30.50;99.90;;;;;;5054646;28;20044;-50
2023/10/12 12:44:01;;;;;;;4.22;3.83;;;30.50;99.90;;;;;;5054850;28;20021;-51
2023/10/12 12:46:29;;;;;;;4.03;3.65;;;30.60;99.90;;;;;;5054758;28;20469;-51
2023/10/12 12:48:55;;;;;;;5.05;3.63;;;30.50;99.90;;;;;;5054579;28;20067;-51
2023/10/12 12:51:22;;;;;;;3.80;3.33;;;30.60;99.90;;;;;;5054864;28;20107;-51
2023/10/12 12:53:50;;;;;;;4.32;3.42;;;30.60;99.90;;;;;;5055024;28;20071;-51
2023/10/12 12:56:17;;;;;;;3.95;3.45;;;30.60;99.90;;;;;;5054596;28;20025;-51
2023/10/12 12:58:47;;;;;;;;;;;30.60;99.90;;;;;;5054895;28;20435;-51
2023/10/12 13:01:17;;;;;;;5.15;3.88;;;30.60;99.90;;;;;;5054156;28;19925;-51
2023/10/12 13:03:46;;;;;;;4.40;4.00;;;30.60;99.90;;;;;;5054311;28;20037;-51
2023/10/12 13:06:14;;;;;;;3.97;3.63;;;30.60;99.90;;;;;;5054418;28;20025;-51
2023/10/12 13:08:40;;;;;;;4.90;3.97;;;30.60;99.90;;;;;;5054353;28;20033;-51
2023/10/12 13:11:09;;;;;;;4.60;3.88;;;30.70;99.90;;;;;;5054333;28;20041;-51
2023/10/12 13:13:35;;;;;;;3.90;3.50;;;30.70;99.90;;;;;;5054222;28;20476;-51
2023/10/12 13:16:04;;;;;;;3.83;3.42;;;30.70;99.90;;;;;;5053274;28;20385;-51
2023/10/12 13:18:34;;;;;;;4.90;4.13;;;30.70;99.90;;;;;;5054107;28;20415;-50
2023/10/12 13:21:01;;;;;;;4.32;3.92;;;30.70;99.90;;;;;;5053867;28;20052;-51
2023/10/12 13:23:27;;;;;;;4.85;4.38;;;30.70;99.90;;;;;;5054150;28;20029;-51
2023/10/12 13:25:53;;;;;;;5.80;3.80;;;30.70;99.90;;;;;;5054196;28;20388;-51
2023/10/12 13:28:19;;;;;;;3.85;3.45;;;30.70;99.90;;;;;;5054245;28;20028;-51
2023/10/12 13:30:45;;;;;;;4.07;3.60;;;30.70;99.90;;;;;;5035934;28;20025;-51
2023/10/12 13:33:11;;;;;;;4.25;3.83;;;30.70;99.90;;;;;;5053909;28;20020;-50
2023/10/12 13:35:44;;;;;;;3.92;3.42;;;30.70;99.90;;;;;;5053860;28;20032;-51
2023/10/12 13:38:11;;;;;;;4.18;3.78;;;30.80;99.90;;;;;;5053732;28;20013;-50
2023/10/12 13:40:43;;;;;;;3.90;3.58;;;30.70;99.90;;;;;;5053624;28;20029;-50
2023/10/12 13:43:21;;;;;;;5.00;3.80;;;30.80;99.90;;;;;;5053563;28;20029;-51
2023/10/12 13:45:54;;;;;;;4.32;3.90;;;30.80;99.90;;;;;;5053696;28;20063;-51
2023/10/12 13:48:22;;;;;;;4.70;3.90;;;30.70;99.90;;;;;;5053943;28;20032;-50
2023/10/12 13:51:04;;;;;;;3.92;3.55;;;30.70;99.90;;;;;;5053524;28;20021;-50
2023/10/12 13:53:36;;;;;;;4.20;3.70;;;30.80;99.90;;;;;;5053519;28;20021;-50
2023/10/12 13:56:06;;;;;;;4.10;3.70;;;30.80;99.90;;;;;;5053488;28;20025;-50
2023/10/12 13:58:34;;;;;;;4.15;3.75;;;30.80;99.90;;;;;;5053176;28;20041;-50
2023/10/12 14:01:04;;;;;;;5.03;4.00;;;30.80;99.90;;;;;;5053227;28;20037;-50
2023/10/12 14:03:34;;;;;;;5.78;3.65;;;30.80;99.90;;;;;;5053368;28;20047;-50
2023/10/12 14:06:02;;;;;;;5.00;3.70;;;30.80;99.90;;;;;;5053224;28;20024;-50
2023/10/12 14:08:32;;;;;;;3.90;3.47;;;30.80;99.90;;;;;;5053150;28;20021;-50
2023/10/12 14:11:03;;;;;;;3.95;3.50;;;30.80;99.90;;;;;;5053133;28;20075;-50
2023/10/12 14:13:30;;;;;;;4.40;3.80;;;30.80;99.90;;;;;;5053121;28;20112;-50
2023/10/12 14:15:56;;;;;;;4.55;4.00;;;30.90;99.90;;;;;;5053187;28;20017;-51
2023/10/12 14:18:21;;;;;;;5.18;4.18;;;30.80;99.90;;;;;;5035052;28;20029;-51
2023/10/12 14:20:49;;;;;;;4.63;4.15;;;30.80;99.90;;;;;;5053061;28;20032;-51
2023/10/12 14:23:15;;;;;;;6.10;4.50;;;30.80;99.90;;;;;;5052733;28;20437;-51
2023/10/12 14:25:51;;;;;;;4.18;3.78;;;30.80;99.90;;;;;;5052990;28;20115;-51
2023/10/12 14:28:17;;;;;;;4.38;3.97;;;30.80;99.90;;;;;;5052851;28;20036;-51
2023/10/12 14:30:50;;;;;;;5.28;4.25;;;30.90;99.90;;;;;;5052799;28;20028;-51
2023/10/12 14:33:20;;;;;;;3.95;3.53;;;30.80;99.90;;;;;;5052647;28;20025;-51
2023/10/12 14:35:47;;;;;;;3.95;3.55;;;30.80;99.90;;;;;;5052673;28;20029;-51
2023/10/12 14:38:19;;;;;;;4.90;4.10;;;30.80;99.90;;;;;;5052821;28;20036;-51
2023/10/12 14:40:45;;;;;;;5.55;4.30;;;30.80;99.90;;;;;;5052499;28;20037;-51
2023/10/12 14:43:16;;;;;;;5.80;4.38;;;30.80;99.90;;;;;;5052640;28;20043;-51
2023/10/12 14:45:55;;;;;;;4.63;3.70;;;30.90;99.90;;;;;;5052736;28;20358;-51
2023/10/12 14:48:25;;;;;;;5.93;3.60;;;30.90;99.90;;;;;;5052645;28;20377;-51
2023/10/12 14:51:09;;;;;;;4.78;3.90;;;30.90;99.90;;;;;;5052480;28;20040;-51
2023/10/12 14:53:35;;;;;;;4.28;3.65;;;30.80;99.90;;;;;;5052375;28;20028;-51
2023/10/12 14:56:05;;;;;;;5.80;3.72;;;30.90;99.90;;;;;;5034718;28;20021;-51
2023/10/12 14:58:31;;;;;;;5.68;4.05;;;30.90;99.90;;;;;;5052342;28;20408;-51
2023/10/12 15:00:57;;;;;;;4.00;3.60;;;30.90;99.90;;;;;;5052111;28;20505;-51
2023/10/12 15:03:23;;;;;;;5.00;4.45;;;30.90;99.90;;;;;;5052120;28;20067;-52
2023/10/12 15:05:51;;;;;;;6.60;4.95;;;30.90;99.90;;;;;;5052238;28;20039;-51
2023/10/12 15:08:18;;;;;;;5.30;4.10;;;30.90;99.90;;;;;;5052085;28;20473;-51
2023/10/12 15:10:44;;;;;;;4.22;3.83;;;30.90;99.90;;;;;;5017966;28;20388;-51
2023/10/12 15:13:13;;;;;;;6.55;4.80;;;30.80;99.90;;;;;;5052136;28;20104;-51